Sao Sebastiao Do Tocantins, Brazil
Current Conditions -  °F | °C
As of 11:15 PM on Saturday 22 Nov 2014 (Local Time) from SBIZ Reporting Station
Few Clouds Few Clouds  
Wind Chill: 82°   Ceiling: Unl
Heat Index: 88°   Visibility: 6mi
Dew Point: 73°   Wind: 6mph
Humidity: 74%   Direction: 10°N
Pressure: 29.83"   Gusts: NA
Location:  5.26°S, 48.2°W
Report Text: SBIZ 230215Z 01005KT 9999 FEW015 28/23 Q1010
Loading
Personal Weather Stations






























Interactive Weather Map New forecast layout! Learn more

10-Day Weather Forecast

Advertisements
Track Severe Weather on mobile